sensor_id;sensor_type;location;lat;lon;timestamp;temperature;humidity
65419;DHT22;52027;50.658;14.004;2022-09-28T00:01:36;23.16;43.60
65419;DHT22;52027;50.658;14.004;2022-09-28T00:04:01;23.17;43.56
65419;DHT22;52027;50.658;14.004;2022-09-28T00:06:29;23.17;43.57
65419;DHT22;52027;50.658;14.004;2022-09-28T00:08:56;23.17;43.60
65419;DHT22;52027;50.658;14.004;2022-09-28T00:11:24;23.17;43.56
65419;DHT22;52027;50.658;14.004;2022-09-28T00:13:53;23.16;43.55
65419;DHT22;52027;50.658;14.004;2022-09-28T00:16:23;23.16;43.53
65419;DHT22;52027;50.658;14.004;2022-09-28T00:18:49;23.19;43.53
65419;DHT22;52027;50.658;14.004;2022-09-28T00:21:18;23.14;43.49
65419;DHT22;52027;50.658;14.004;2022-09-28T00:23:44;23.16;43.47
65419;DHT22;52027;50.658;14.004;2022-09-28T00:26:31;23.17;43.46
65419;DHT22;52027;50.658;14.004;2022-09-28T00:29:00;23.14;43.46
65419;DHT22;52027;50.658;14.004;2022-09-28T00:31:29;23.14;43.47
65419;DHT22;52027;50.658;14.004;2022-09-28T00:33:56;23.14;43.46
65419;DHT22;52027;50.658;14.004;2022-09-28T00:36:25;23.12;43.42
65419;DHT22;52027;50.658;14.004;2022-09-28T00:38:57;23.13;43.41
65419;DHT22;52027;50.658;14.004;2022-09-28T00:41:24;23.13;43.41
65419;DHT22;52027;50.658;14.004;2022-09-28T00:43:51;23.14;43.42
65419;DHT22;52027;50.658;14.004;2022-09-28T00:46:42;23.13;43.43
65419;DHT22;52027;50.658;14.004;2022-09-28T00:49:11;23.12;43.35
65419;DHT22;52027;50.658;14.004;2022-09-28T00:51:41;23.12;43.37
65419;DHT22;52027;50.658;14.004;2022-09-28T00:54:09;23.10;43.39
65419;DHT22;52027;50.658;14.004;2022-09-28T00:56:39;23.13;43.34
65419;DHT22;52027;50.658;14.004;2022-09-28T00:59:07;23.12;43.31
65419;DHT22;52027;50.658;14.004;2022-09-28T01:01:33;23.12;43.34
65419;DHT22;52027;50.658;14.004;2022-09-28T01:04:00;23.13;43.31
65419;DHT22;52027;50.658;14.004;2022-09-28T01:06:28;23.12;43.28
65419;DHT22;52027;50.658;14.004;2022-09-28T01:08:57;23.10;43.30
65419;DHT22;52027;50.658;14.004;2022-09-28T01:11:23;23.13;43.24
65419;DHT22;52027;50.658;14.004;2022-09-28T01:13:52;23.13;43.22
65419;DHT22;52027;50.658;14.004;2022-09-28T01:30:14;23.07;43.14
65419;DHT22;52027;50.658;14.004;2022-09-28T01:35:38;23.09;43.15
65419;DHT22;52027;50.658;14.004;2022-09-28T01:40:48;23.06;43.13
65419;DHT22;52027;50.658;14.004;2022-09-28T01:43:26;23.07;43.13
65419;DHT22;52027;50.658;14.004;2022-09-28T01:46:20;23.06;43.09
65419;DHT22;52027;50.658;14.004;2022-09-28T01:48:55;23.09;43.10
65419;DHT22;52027;50.658;14.004;2022-09-28T01:51:38;23.06;43.09
65419;DHT22;52027;50.658;14.004;2022-09-28T01:54:21;23.06;43.08
65419;DHT22;52027;50.658;14.004;2022-09-28T01:57:07;23.04;43.07
65419;DHT22;52027;50.658;14.004;2022-09-28T01:59:35;23.03;43.10
65419;DHT22;52027;50.658;14.004;2022-09-28T02:02:15;23.06;43.04
65419;DHT22;52027;50.658;14.004;2022-09-28T02:04:51;23.04;43.01
65419;DHT22;52027;50.658;14.004;2022-09-28T02:07:27;23.04;43.02
65419;DHT22;52027;50.658;14.004;2022-09-28T02:09:59;23.03;43.02
65419;DHT22;52027;50.658;14.004;2022-09-28T02:12:36;23.03;43.00
65419;DHT22;52027;50.658;14.004;2022-09-28T02:17:34;23.04;42.99
65419;DHT22;52027;50.658;14.004;2022-09-28T02:20:00;23.03;42.93
65419;DHT22;52027;50.658;14.004;2022-09-28T02:22:56;23.04;42.90
65419;DHT22;52027;50.658;14.004;2022-09-28T02:27:59;23.02;42.91
65419;DHT22;52027;50.658;14.004;2022-09-28T02:30:25;23.03;42.92
65419;DHT22;52027;50.658;14.004;2022-09-28T02:32:53;23.03;42.92
65419;DHT22;52027;50.658;14.004;2022-09-28T02:35:21;23.00;42.86
65419;DHT22;52027;50.658;14.004;2022-09-28T02:37:48;23.04;42.89
65419;DHT22;52027;50.658;14.004;2022-09-28T02:40:19;23.04;42.87
65419;DHT22;52027;50.658;14.004;2022-09-28T02:43:01;23.03;42.84
65419;DHT22;52027;50.658;14.004;2022-09-28T03:07:23;22.96;42.79
65419;DHT22;52027;50.658;14.004;2022-09-28T03:12:22;22.96;42.70
65419;DHT22;52027;50.658;14.004;2022-09-28T03:15:21;22.99;42.73
65419;DHT22;52027;50.658;14.004;2022-09-28T03:17:47;22.98;42.75
65419;DHT22;52027;50.658;14.004;2022-09-28T03:20:12;22.98;42.72
65419;DHT22;52027;50.658;14.004;2022-09-28T03:22:38;22.96;42.69
65419;DHT22;52027;50.658;14.004;2022-09-28T03:25:05;22.98;42.72
65419;DHT22;52027;50.658;14.004;2022-09-28T03:27:31;22.95;42.73
65419;DHT22;52027;50.658;14.004;2022-09-28T03:29:57;22.95;42.66
65419;DHT22;52027;50.658;14.004;2022-09-28T03:32:22;22.95;42.70
65419;DHT22;52027;50.658;14.004;2022-09-28T03:34:48;22.92;42.65
65419;DHT22;52027;50.658;14.004;2022-09-28T03:37:13;22.95;42.66
65419;DHT22;52027;50.658;14.004;2022-09-28T03:39:38;22.93;42.66
65419;DHT22;52027;50.658;14.004;2022-09-28T03:42:04;22.96;42.64
65419;DHT22;52027;50.658;14.004;2022-09-28T03:44:29;22.95;42.67
65419;DHT22;52027;50.658;14.004;2022-09-28T03:46:55;22.95;42.60
65419;DHT22;52027;50.658;14.004;2022-09-28T03:49:22;22.95;42.63
65419;DHT22;52027;50.658;14.004;2022-09-28T03:51:48;22.95;42.63
65419;DHT22;52027;50.658;14.004;2022-09-28T03:54:13;22.93;42.60
65419;DHT22;52027;50.658;14.004;2022-09-28T03:56:39;22.95;42.58
65419;DHT22;52027;50.658;14.004;2022-09-28T03:59:05;22.93;42.58
65419;DHT22;52027;50.658;14.004;2022-09-28T04:01:31;22.93;42.57
65419;DHT22;52027;50.658;14.004;2022-09-28T04:03:57;22.92;42.55
65419;DHT22;52027;50.658;14.004;2022-09-28T04:06:23;22.91;42.57
65419;DHT22;52027;50.658;14.004;2022-09-28T04:08:49;22.92;42.57
65419;DHT22;52027;50.658;14.004;2022-09-28T04:11:14;22.91;42.51
65419;DHT22;52027;50.658;14.004;2022-09-28T04:13:40;22.92;42.49
65419;DHT22;52027;50.658;14.004;2022-09-28T04:16:05;22.93;42.54
65419;DHT22;52027;50.658;14.004;2022-09-28T04:18:31;22.91;42.52
65419;DHT22;52027;50.658;14.004;2022-09-28T04:21:01;22.93;42.52
65419;DHT22;52027;50.658;14.004;2022-09-28T04:23:28;22.91;42.48
65419;DHT22;52027;50.658;14.004;2022-09-28T04:25:54;22.88;42.49
65419;DHT22;52027;50.658;14.004;2022-09-28T04:28:19;22.89;42.52
65419;DHT22;52027;50.658;14.004;2022-09-28T04:31:09;22.93;42.45
65419;DHT22;52027;50.658;14.004;2022-09-28T04:33:35;22.91;42.43
65419;DHT22;52027;50.658;14.004;2022-09-28T04:36:01;22.88;42.46
65419;DHT22;52027;50.658;14.004;2022-09-28T04:38:27;22.88;42.47
65419;DHT22;52027;50.658;14.004;2022-09-28T04:40:52;22.91;42.43
65419;DHT22;52027;50.658;14.004;2022-09-28T04:43:18;22.91;42.41
65419;DHT22;52027;50.658;14.004;2022-09-28T04:45:43;22.89;42.45
65419;DHT22;52027;50.658;14.004;2022-09-28T04:48:08;22.88;42.46
65419;DHT22;52027;50.658;14.004;2022-09-28T04:50:34;22.88;42.40
65419;DHT22;52027;50.658;14.004;2022-09-28T04:53:00;22.86;42.36
65419;DHT22;52027;50.658;14.004;2022-09-28T04:55:26;22.88;42.39
65419;DHT22;52027;50.658;14.004;2022-09-28T04:57:56;22.89;42.31
65419;DHT22;52027;50.658;14.004;2022-09-28T05:00:21;22.88;42.35
65419;DHT22;52027;50.658;14.004;2022-09-28T05:02:48;22.86;42.37
65419;DHT22;52027;50.658;14.004;2022-09-28T05:05:13;22.86;42.35
65419;DHT22;52027;50.658;14.004;2022-09-28T05:07:38;22.88;42.34
65419;DHT22;52027;50.658;14.004;2022-09-28T05:10:06;22.88;42.28
65419;DHT22;52027;50.658;14.004;2022-09-28T05:12:31;22.85;42.30
65419;DHT22;52027;50.658;14.004;2022-09-28T05:14:56;22.85;42.30
65419;DHT22;52027;50.658;14.004;2022-09-28T05:17:22;22.85;42.30
65419;DHT22;52027;50.658;14.004;2022-09-28T05:19:48;22.85;42.33
65419;DHT22;52027;50.658;14.004;2022-09-28T05:22:14;22.86;42.28
65419;DHT22;52027;50.658;14.004;2022-09-28T05:24:39;22.86;42.37
65419;DHT22;52027;50.658;14.004;2022-09-28T05:27:05;22.86;42.27
65419;DHT22;52027;50.658;14.004;2022-09-28T05:29:35;22.85;42.34
65419;DHT22;52027;50.658;14.004;2022-09-28T05:32:00;22.83;42.24
65419;DHT22;52027;50.658;14.004;2022-09-28T05:34:25;22.83;42.25
65419;DHT22;52027;50.658;14.004;2022-09-28T05:36:51;22.82;42.22
65419;DHT22;52027;50.658;14.004;2022-09-28T05:39:16;22.81;42.28
65419;DHT22;52027;50.658;14.004;2022-09-28T05:41:42;22.83;42.25
65419;DHT22;52027;50.658;14.004;2022-09-28T05:44:07;22.82;42.24
65419;DHT22;52027;50.658;14.004;2022-09-28T05:46:33;22.83;42.18
65419;DHT22;52027;50.658;14.004;2022-09-28T05:48:58;22.82;42.24
65419;DHT22;52027;50.658;14.004;2022-09-28T05:51:25;22.83;42.24
65419;DHT22;52027;50.658;14.004;2022-09-28T05:53:53;22.82;42.17
65419;DHT22;52027;50.658;14.004;2022-09-28T05:56:19;22.82;42.21
65419;DHT22;52027;50.658;14.004;2022-09-28T05:58:44;22.81;42.19
65419;DHT22;52027;50.658;14.004;2022-09-28T06:01:10;22.81;42.19
65419;DHT22;52027;50.658;14.004;2022-09-28T06:03:35;22.81;42.16
65419;DHT22;52027;50.658;14.004;2022-09-28T06:06:01;22.83;42.14
65419;DHT22;52027;50.658;14.004;2022-09-28T06:08:32;22.82;42.17
65419;DHT22;52027;50.658;14.004;2022-09-28T06:10:59;22.79;42.14
65419;DHT22;52027;50.658;14.004;2022-09-28T06:13:25;22.81;42.14
65419;DHT22;52027;50.658;14.004;2022-09-28T06:15:53;22.79;42.11
65419;DHT22;52027;50.658;14.004;2022-09-28T06:18:18;22.79;42.10
65419;DHT22;52027;50.658;14.004;2022-09-28T06:20:43;22.79;42.09
65419;DHT22;52027;50.658;14.004;2022-09-28T06:23:10;22.79;42.09
65419;DHT22;52027;50.658;14.004;2022-09-28T06:25:37;22.79;42.08
65419;DHT22;52027;50.658;14.004;2022-09-28T06:28:07;22.77;42.08
65419;DHT22;52027;50.658;14.004;2022-09-28T06:30:34;22.79;42.07
65419;DHT22;52027;50.658;14.004;2022-09-28T06:33:02;22.77;42.07
65419;DHT22;52027;50.658;14.004;2022-09-28T06:35:29;22.77;42.06
65419;DHT22;52027;50.658;14.004;2022-09-28T06:37:55;22.79;42.10
65419;DHT22;52027;50.658;14.004;2022-09-28T06:40:25;22.79;42.03
65419;DHT22;52027;50.658;14.004;2022-09-28T06:42:58;22.79;42.00
65419;DHT22;52027;50.658;14.004;2022-09-28T06:45:25;22.81;41.97
65419;DHT22;52027;50.658;14.004;2022-09-28T06:47:56;22.81;42.01
65419;DHT22;52027;50.658;14.004;2022-09-28T06:50:24;22.81;42.00
65419;DHT22;52027;50.658;14.004;2022-09-28T06:52:54;22.79;41.97
65419;DHT22;52027;50.658;14.004;2022-09-28T06:55:21;22.79;41.95
65419;DHT22;52027;50.658;14.004;2022-09-28T06:57:47;22.79;41.95
65419;DHT22;52027;50.658;14.004;2022-09-28T07:00:20;22.81;41.97
65419;DHT22;52027;50.658;14.004;2022-09-28T07:02:45;22.77;41.94
65419;DHT22;52027;50.658;14.004;2022-09-28T07:05:11;22.77;41.90
65419;DHT22;52027;50.658;14.004;2022-09-28T07:07:37;22.77;41.95
65419;DHT22;52027;50.658;14.004;2022-09-28T07:10:05;22.77;41.92
65419;DHT22;52027;50.658;14.004;2022-09-28T07:12:30;22.79;41.91
65419;DHT22;52027;50.658;14.004;2022-09-28T07:14:56;22.76;41.88
65419;DHT22;52027;50.658;14.004;2022-09-28T07:17:23;22.79;41.94
65419;DHT22;52027;50.658;14.004;2022-09-28T07:19:49;22.77;41.89
65419;DHT22;52027;50.658;14.004;2022-09-28T07:22:17;22.77;41.88
65419;DHT22;52027;50.658;14.004;2022-09-28T07:24:42;22.79;41.88
65419;DHT22;52027;50.658;14.004;2022-09-28T07:27:08;22.77;41.88
65419;DHT22;52027;50.658;14.004;2022-09-28T07:29:34;22.77;41.83
65419;DHT22;52027;50.658;14.004;2022-09-28T07:31:59;22.73;41.91
65419;DHT22;52027;50.658;14.004;2022-09-28T07:34:25;22.77;41.85
65419;DHT22;52027;50.658;14.004;2022-09-28T07:36:50;22.75;41.82
65419;DHT22;52027;50.658;14.004;2022-09-28T07:39:23;22.75;41.91
65419;DHT22;52027;50.658;14.004;2022-09-28T07:41:48;22.76;41.88
65419;DHT22;52027;50.658;14.004;2022-09-28T07:44:13;22.75;41.86
65419;DHT22;52027;50.658;14.004;2022-09-28T07:46:39;22.75;41.82
65419;DHT22;52027;50.658;14.004;2022-09-28T07:49:05;22.75;41.79
65419;DHT22;52027;50.658;14.004;2022-09-28T07:51:32;22.75;41.85
65419;DHT22;52027;50.658;14.004;2022-09-28T07:53:59;22.72;41.82
65419;DHT22;52027;50.658;14.004;2022-09-28T07:56:25;22.72;41.83
65419;DHT22;52027;50.658;14.004;2022-09-28T07:58:50;22.75;41.82
65419;DHT22;52027;50.658;14.004;2022-09-28T08:01:16;22.73;41.80
65419;DHT22;52027;50.658;14.004;2022-09-28T08:03:43;22.73;41.85
65419;DHT22;52027;50.658;14.004;2022-09-28T08:06:11;22.75;41.79
65419;DHT22;52027;50.658;14.004;2022-09-28T08:08:37;22.75;41.82
65419;DHT22;52027;50.658;14.004;2022-09-28T08:11:05;22.73;41.75
65419;DHT22;52027;50.658;14.004;2022-09-28T08:13:31;22.73;41.73
65419;DHT22;52027;50.658;14.004;2022-09-28T08:16:00;22.75;41.73
65419;DHT22;52027;50.658;14.004;2022-09-28T08:18:25;22.73;41.74
65419;DHT22;52027;50.658;14.004;2022-09-28T08:20:51;22.73;41.70
65419;DHT22;52027;50.658;14.004;2022-09-28T08:23:35;22.72;41.70
65419;DHT22;52027;50.658;14.004;2022-09-28T08:26:03;22.72;41.71
65419;DHT22;52027;50.658;14.004;2022-09-28T08:28:30;22.73;41.68
65419;DHT22;52027;50.658;14.004;2022-09-28T08:30:58;22.71;41.71
65419;DHT22;52027;50.658;14.004;2022-09-28T08:33:23;22.72;41.70
65419;DHT22;52027;50.658;14.004;2022-09-28T08:36:00;22.71;41.74
65419;DHT22;52027;50.658;14.004;2022-09-28T08:38:27;22.71;41.71
65419;DHT22;52027;50.658;14.004;2022-09-28T08:45:56;22.73;41.66
65419;DHT22;52027;50.658;14.004;2022-09-28T08:48:34;22.72;41.65
65419;DHT22;52027;50.658;14.004;2022-09-28T08:51:29;22.71;41.73
65419;DHT22;52027;50.658;14.004;2022-09-28T08:54:01;22.69;41.75
65419;DHT22;52027;50.658;14.004;2022-09-28T08:56:42;22.66;41.77
65419;DHT22;52027;50.658;14.004;2022-09-28T08:59:13;22.69;41.69
65419;DHT22;52027;50.658;14.004;2022-09-28T09:01:49;22.68;41.74
65419;DHT22;52027;50.658;14.004;2022-09-28T09:04:17;22.66;41.71
65419;DHT22;52027;50.658;14.004;2022-09-28T09:07:22;22.66;41.70
65419;DHT22;52027;50.658;14.004;2022-09-28T09:10:02;22.68;41.72
65419;DHT22;52027;50.658;14.004;2022-09-28T09:20:55;22.65;41.70
65419;DHT22;52027;50.658;14.004;2022-09-28T09:26:19;22.66;41.66
65419;DHT22;52027;50.658;14.004;2022-09-28T09:45:39;22.64;41.66
65419;DHT22;52027;50.658;14.004;2022-09-28T09:48:13;22.62;41.63
65419;DHT22;52027;50.658;14.004;2022-09-28T09:50:56;22.65;41.66
65419;DHT22;52027;50.658;14.004;2022-09-28T09:53:32;22.64;41.63
65419;DHT22;52027;50.658;14.004;2022-09-28T09:56:09;22.66;41.62
65419;DHT22;52027;50.658;14.004;2022-09-28T09:58:52;22.66;41.59
65419;DHT22;52027;50.658;14.004;2022-09-28T10:01:21;22.66;41.63
65419;DHT22;52027;50.658;14.004;2022-09-28T10:03:49;22.66;41.65
65419;DHT22;52027;50.658;14.004;2022-09-28T10:06:18;22.69;41.63
65419;DHT22;52027;50.658;14.004;2022-09-28T10:08:51;22.66;41.58
65419;DHT22;52027;50.658;14.004;2022-09-28T10:11:21;22.66;41.59
65419;DHT22;52027;50.658;14.004;2022-09-28T10:13:49;22.68;41.60
65419;DHT22;52027;50.658;14.004;2022-09-28T10:16:17;22.68;41.54
65419;DHT22;52027;50.658;14.004;2022-09-28T10:18:43;22.69;41.57
65419;DHT22;52027;50.658;14.004;2022-09-28T10:21:13;22.66;41.52
65419;DHT22;52027;50.658;14.004;2022-09-28T10:23:40;22.72;41.53
65419;DHT22;52027;50.658;14.004;2022-09-28T10:26:14;22.71;41.45
65419;DHT22;52027;50.658;14.004;2022-09-28T10:28:53;22.69;41.54
65419;DHT22;52027;50.658;14.004;2022-09-28T10:34:02;22.71;41.51
65419;DHT22;52027;50.658;14.004;2022-09-28T10:36:29;22.71;41.52
65419;DHT22;52027;50.658;14.004;2022-09-28T10:39:03;22.72;41.48
65419;DHT22;52027;50.658;14.004;2022-09-28T10:41:29;22.71;41.52
65419;DHT22;52027;50.658;14.004;2022-09-28T10:43:57;22.71;41.49
65419;DHT22;52027;50.658;14.004;2022-09-28T10:46:33;22.72;41.47
65419;DHT22;52027;50.658;14.004;2022-09-28T10:49:06;22.71;41.52
65419;DHT22;52027;50.658;14.004;2022-09-28T10:51:51;22.71;41.49
65419;DHT22;52027;50.658;14.004;2022-09-28T10:54:28;22.72;41.47
65419;DHT22;52027;50.658;14.004;2022-09-28T10:57:02;22.76;41.50
65419;DHT22;52027;50.658;14.004;2022-09-28T11:02:01;22.73;41.50
65419;DHT22;52027;50.658;14.004;2022-09-28T11:04:32;22.75;41.50
65419;DHT22;52027;50.658;14.004;2022-09-28T11:07:00;22.73;41.53
65419;DHT22;52027;50.658;14.004;2022-09-28T11:09:37;22.76;41.50
65419;DHT22;52027;50.658;14.004;2022-09-28T11:12:05;22.76;41.43
65419;DHT22;52027;50.658;14.004;2022-09-28T11:14:38;22.79;41.47
65419;DHT22;52027;50.658;14.004;2022-09-28T11:19:45;22.82;41.49
65419;DHT22;52027;50.658;14.004;2022-09-28T11:27:37;22.81;41.40
65419;DHT22;52027;50.658;14.004;2022-09-28T11:30:03;22.81;41.45
65419;DHT22;52027;50.658;14.004;2022-09-28T11:32:40;22.81;41.45
65419;DHT22;52027;50.658;14.004;2022-09-28T11:35:16;22.81;41.49
65419;DHT22;52027;50.658;14.004;2022-09-28T11:37:45;22.81;41.45
65419;DHT22;52027;50.658;14.004;2022-09-28T11:48:23;22.81;41.53
65419;DHT22;52027;50.658;14.004;2022-09-28T11:50:57;22.82;41.56
65419;DHT22;52027;50.658;14.004;2022-09-28T11:53:50;22.81;41.50
65419;DHT22;52027;50.658;14.004;2022-09-28T11:56:37;22.82;41.52
65419;DHT22;52027;50.658;14.004;2022-09-28T11:59:14;22.82;41.51
65419;DHT22;52027;50.658;14.004;2022-09-28T12:01:52;22.82;41.51
65419;DHT22;52027;50.658;14.004;2022-09-28T12:04:24;22.82;41.51
65419;DHT22;52027;50.658;14.004;2022-09-28T12:07:17;22.83;41.55
65419;DHT22;52027;50.658;14.004;2022-09-28T12:09:49;22.81;41.52
65419;DHT22;52027;50.658;14.004;2022-09-28T12:12:36;22.79;41.55
65419;DHT22;52027;50.658;14.004;2022-09-28T12:15:24;22.81;41.53
65419;DHT22;52027;50.658;14.004;2022-09-28T12:18:01;22.81;41.58
65419;DHT22;52027;50.658;14.004;2022-09-28T12:20:37;22.81;41.56
65419;DHT22;52027;50.658;14.004;2022-09-28T12:23:10;22.79;41.59
65419;DHT22;52027;50.658;14.004;2022-09-28T12:26:00;22.79;41.65
65419;DHT22;52027;50.658;14.004;2022-09-28T12:30:52;22.77;41.60
65419;DHT22;52027;50.658;14.004;2022-09-28T12:33:19;22.77;41.60
65419;DHT22;52027;50.658;14.004;2022-09-28T12:35:52;22.77;41.66
65419;DHT22;52027;50.658;14.004;2022-09-28T12:51:53;22.75;41.66
65419;DHT22;52027;50.658;14.004;2022-09-28T12:54:53;22.75;41.73
65419;DHT22;52027;50.658;14.004;2022-09-28T13:00:13;22.73;41.74
65419;DHT22;52027;50.658;14.004;2022-09-28T13:03:08;22.73;41.79
65419;DHT22;52027;50.658;14.004;2022-09-28T13:05:57;22.72;41.76
65419;DHT22;52027;50.658;14.004;2022-09-28T13:13:52;22.81;41.69
65419;DHT22;52027;50.658;14.004;2022-09-28T13:16:39;22.83;41.67
65419;DHT22;52027;50.658;14.004;2022-09-28T13:24:21;22.88;41.64
65419;DHT22;52027;50.658;14.004;2022-09-28T13:26:52;22.86;41.61
65419;DHT22;52027;50.658;14.004;2022-09-28T13:29:19;22.91;41.58
65419;DHT22;52027;50.658;14.004;2022-09-28T13:31:51;22.92;41.53
65419;DHT22;52027;50.658;14.004;2022-09-28T13:34:20;22.96;41.53
65419;DHT22;52027;50.658;14.004;2022-09-28T13:37:18;23.00;41.58
65419;DHT22;52027;50.658;14.004;2022-09-28T13:39:52;23.03;41.45
65419;DHT22;52027;50.658;14.004;2022-09-28T13:45:04;23.10;41.41
65419;DHT22;52027;50.658;14.004;2022-09-28T13:50:20;23.14;41.29
65419;DHT22;52027;50.658;14.004;2022-09-28T13:55:46;23.16;41.24
65419;DHT22;52027;50.658;14.004;2022-09-28T14:00:48;23.19;41.21
65419;DHT22;52027;50.658;14.004;2022-09-28T14:05:45;23.20;41.19
65419;DHT22;52027;50.658;14.004;2022-09-28T14:10:56;23.22;41.19
65419;DHT22;52027;50.658;14.004;2022-09-28T14:16:30;23.20;41.17
65419;DHT22;52027;50.658;14.004;2022-09-28T14:19:15;23.20;41.13
65419;DHT22;52027;50.658;14.004;2022-09-28T14:27:21;23.17;41.12
65419;DHT22;52027;50.658;14.004;2022-09-28T14:30:05;23.14;41.11
65419;DHT22;52027;50.658;14.004;2022-09-28T14:32:32;23.14;41.10
65419;DHT22;52027;50.658;14.004;2022-09-28T14:35:02;23.12;41.10
65419;DHT22;52027;50.658;14.004;2022-09-28T14:37:35;23.10;41.16
65419;DHT22;52027;50.658;14.004;2022-09-28T14:40:29;23.07;41.13
65419;DHT22;52027;50.658;14.004;2022-09-28T14:54:19;23.00;41.27
65419;DHT22;52027;50.658;14.004;2022-09-28T14:56:53;22.99;41.32
65419;DHT22;52027;50.658;14.004;2022-09-28T14:59:31;22.96;41.29
65419;DHT22;52027;50.658;14.004;2022-09-28T15:04:51;22.98;41.35
65419;DHT22;52027;50.658;14.004;2022-09-28T15:07:41;22.96;41.29
65419;DHT22;52027;50.658;14.004;2022-09-28T15:10:24;23.00;41.38
65419;DHT22;52027;50.658;14.004;2022-09-28T15:12:53;23.02;41.31
65419;DHT22;52027;50.658;14.004;2022-09-28T15:18:03;22.98;41.38
65419;DHT22;52027;50.658;14.004;2022-09-28T15:20:39;22.98;41.39
65419;DHT22;52027;50.658;14.004;2022-09-28T15:23:35;22.96;41.35
65419;DHT22;52027;50.658;14.004;2022-09-28T15:26:01;22.98;41.33
65419;DHT22;52027;50.658;14.004;2022-09-28T15:28:27;22.98;41.33
65419;DHT22;52027;50.658;14.004;2022-09-28T15:31:00;22.95;41.34
65419;DHT22;52027;50.658;14.004;2022-09-28T15:33:30;22.95;41.38
65419;DHT22;52027;50.658;14.004;2022-09-28T15:36:24;22.95;41.36
65419;DHT22;52027;50.658;14.004;2022-09-28T15:41:18;22.92;41.38
65419;DHT22;52027;50.658;14.004;2022-09-28T15:44:03;22.89;41.43
65419;DHT22;52027;50.658;14.004;2022-09-28T15:46:31;22.91;41.41
65419;DHT22;52027;50.658;14.004;2022-09-28T15:48:59;22.86;41.48
65419;DHT22;52027;50.658;14.004;2022-09-28T15:51:29;22.88;41.48
65419;DHT22;52027;50.658;14.004;2022-09-28T15:54:09;22.88;41.43
65419;DHT22;52027;50.658;14.004;2022-09-28T15:56:55;22.86;41.47
65419;DHT22;52027;50.658;14.004;2022-09-28T15:59:35;22.85;41.52
65419;DHT22;52027;50.658;14.004;2022-09-28T16:02:19;22.82;41.51
65419;DHT22;52027;50.658;14.004;2022-09-28T16:04:51;22.82;41.53
65419;DHT22;52027;50.658;14.004;2022-09-28T16:07:33;22.82;41.59
65419;DHT22;52027;50.658;14.004;2022-09-28T16:12:48;22.79;41.59
65419;DHT22;52027;50.658;14.004;2022-09-28T16:17:54;22.77;41.62
65419;DHT22;52027;50.658;14.004;2022-09-28T16:22:57;22.76;41.64
65419;DHT22;52027;50.658;14.004;2022-09-28T16:25:27;22.77;41.62
65419;DHT22;52027;50.658;14.004;2022-09-28T16:27:54;22.76;41.63
65419;DHT22;52027;50.658;14.004;2022-09-28T16:30:25;22.73;41.61
65419;DHT22;52027;50.658;14.004;2022-09-28T16:33:26;22.72;41.66
65419;DHT22;52027;50.658;14.004;2022-09-28T16:35:49;22.72;41.66
65419;DHT22;52027;50.658;14.004;2022-09-28T16:38:17;22.69;41.66
65419;DHT22;52027;50.658;14.004;2022-09-28T16:40:45;22.71;41.69
65419;DHT22;52027;50.658;14.004;2022-09-28T16:43:39;22.69;41.63
65419;DHT22;52027;50.658;14.004;2022-09-28T16:46:10;22.71;41.68
65419;DHT22;52027;50.658;14.004;2022-09-28T16:48:40;22.66;41.77
65419;DHT22;52027;50.658;14.004;2022-09-28T16:51:09;22.68;41.79
65419;DHT22;52027;50.658;14.004;2022-09-28T16:53:35;22.66;41.78
65419;DHT22;52027;50.658;14.004;2022-09-28T16:56:19;22.64;41.81
65419;DHT22;52027;50.658;14.004;2022-09-28T16:58:44;22.65;41.77
65419;DHT22;52027;50.658;14.004;2022-09-28T17:01:12;22.65;41.83
65419;DHT22;52027;50.658;14.004;2022-09-28T17:03:37;22.65;41.84
65419;DHT22;52027;50.658;14.004;2022-09-28T17:06:09;22.65;41.84
65419;DHT22;52027;50.658;14.004;2022-09-28T17:08:35;22.61;41.81
65419;DHT22;52027;50.658;14.004;2022-09-28T17:11:01;22.64;41.84
65419;DHT22;52027;50.658;14.004;2022-09-28T17:13:28;22.62;41.88
65419;DHT22;52027;50.658;14.004;2022-09-28T17:15:58;22.62;41.86
65419;DHT22;52027;50.658;14.004;2022-09-28T17:18:23;22.61;41.86
65419;DHT22;52027;50.658;14.004;2022-09-28T17:20:50;22.59;41.86
65419;DHT22;52027;50.658;14.004;2022-09-28T17:23:17;22.61;41.81
65419;DHT22;52027;50.658;14.004;2022-09-28T17:25:43;22.58;41.87
65419;DHT22;52027;50.658;14.004;2022-09-28T17:28:18;22.59;41.86
65419;DHT22;52027;50.658;14.004;2022-09-28T17:30:45;22.58;41.90
65419;DHT22;52027;50.658;14.004;2022-09-28T17:33:11;22.59;41.93
65419;DHT22;52027;50.658;14.004;2022-09-28T17:35:37;22.57;41.96
65419;DHT22;52027;50.658;14.004;2022-09-28T17:38:03;22.55;41.93
65419;DHT22;52027;50.658;14.004;2022-09-28T17:40:28;22.57;41.90
65419;DHT22;52027;50.658;14.004;2022-09-28T17:42:55;22.57;41.87
65419;DHT22;52027;50.658;14.004;2022-09-28T17:45:22;22.57;41.94
65419;DHT22;52027;50.658;14.004;2022-09-28T17:47:51;22.54;41.96
65419;DHT22;52027;50.658;14.004;2022-09-28T17:50:31;22.57;41.96
65419;DHT22;52027;50.658;14.004;2022-09-28T17:52:57;22.54;41.92
65419;DHT22;52027;50.658;14.004;2022-09-28T17:55:33;22.52;41.92
65419;DHT22;52027;50.658;14.004;2022-09-28T17:58:00;22.54;41.92
65419;DHT22;52027;50.658;14.004;2022-09-28T18:00:27;22.54;41.88
65419;DHT22;52027;50.658;14.004;2022-09-28T18:02:54;22.52;41.88
65419;DHT22;52027;50.658;14.004;2022-09-28T18:05:19;22.52;41.88
65419;DHT22;52027;50.658;14.004;2022-09-28T18:07:45;22.52;41.88
65419;DHT22;52027;50.658;14.004;2022-09-28T18:10:21;22.51;41.90
65419;DHT22;52027;50.658;14.004;2022-09-28T18:12:48;22.49;41.91
65419;DHT22;52027;50.658;14.004;2022-09-28T18:15:14;22.51;41.94
65419;DHT22;52027;50.658;14.004;2022-09-28T18:17:39;22.51;41.96
65419;DHT22;52027;50.658;14.004;2022-09-28T18:20:07;22.48;41.95
65419;DHT22;52027;50.658;14.004;2022-09-28T18:22:33;22.51;41.98
65419;DHT22;52027;50.658;14.004;2022-09-28T18:24:58;22.48;42.01
65419;DHT22;52027;50.658;14.004;2022-09-28T18:27:24;22.49;41.98
65419;DHT22;52027;50.658;14.004;2022-09-28T18:29:49;22.48;42.01
65419;DHT22;52027;50.658;14.004;2022-09-28T18:32:15;22.48;41.96
65419;DHT22;52027;50.658;14.004;2022-09-28T18:34:40;22.49;41.96
65419;DHT22;52027;50.658;14.004;2022-09-28T18:37:05;22.47;42.04
65419;DHT22;52027;50.658;14.004;2022-09-28T18:39:31;22.49;42.01
65419;DHT22;52027;50.658;14.004;2022-09-28T18:41:56;22.48;41.99